Terminal Aerodrome Forecast
Issued by NWS

Home | Current Version | Previous Version | Text Only | Print | Product List | Glossary On
Versions: 1 2 3 4 5 6 7 8 9 10 11 12 13 14
000
FTUS44 KMOB 270521
TAFBFM
TAF
KBFM 270521Z 2706/2806 14017G24KT P6SM VCSH BKN010 OVC030
      TEMPO 2709/2713 3SM -TSRA BKN010CB
     FM271500 30007KT P6SM BKN010
     FM271900 24010G15KT P6SM SCT250
     FM272100 19009KT P6SM SKC
     FM280400 15008KT P6SM OVC015=

USA.gov is the U.S. government's official web portal to all federal, state and local government web resources and services.